sensor_id;sensor_type;location;lat;lon;timestamp;P1;durP1;ratioP1;P2;durP2;ratioP2
23370;SDS011;11858;51.056;3.712;2023-04-24T00:00:03;4.68;;;3.45;;
23370;SDS011;11858;51.056;3.712;2023-04-24T00:02:38;3.70;;;3.08;;
23370;SDS011;11858;51.056;3.712;2023-04-24T00:05:07;0.77;;;0.77;;
23370;SDS011;11858;51.056;3.712;2023-04-24T00:07:33;11.45;;;5.97;;
23370;SDS011;11858;51.056;3.712;2023-04-24T00:09:59;19.25;;;9.68;;
23370;SDS011;11858;51.056;3.712;2023-04-24T00:12:25;7.70;;;3.78;;
23370;SDS011;11858;51.056;3.712;2023-04-24T00:14:51;20.50;;;8.57;;
23370;SDS011;11858;51.056;3.712;2023-04-24T00:17:18;9.10;;;3.40;;
23370;SDS011;11858;51.056;3.712;2023-04-24T00:19:47;17.70;;;7.15;;
23370;SDS011;11858;51.056;3.712;2023-04-24T00:22:13;16.45;;;7.47;;
23370;SDS011;11858;51.056;3.712;2023-04-24T00:24:39;16.88;;;6.57;;
23370;SDS011;11858;51.056;3.712;2023-04-24T00:27:05;23.95;;;12.60;;
23370;SDS011;11858;51.056;3.712;2023-04-24T00:29:31;6.07;;;3.92;;
23370;SDS011;11858;51.056;3.712;2023-04-24T00:31:56;10.15;;;2.67;;
23370;SDS011;11858;51.056;3.712;2023-04-24T00:34:22;1.05;;;1.05;;
23370;SDS011;11858;51.056;3.712;2023-04-24T00:36:48;4.03;;;1.98;;
23370;SDS011;11858;51.056;3.712;2023-04-24T00:39:17;1.80;;;1.70;;
23370;SDS011;11858;51.056;3.712;2023-04-24T00:41:46;2.10;;;1.85;;
23370;SDS011;11858;51.056;3.712;2023-04-24T00:44:13;18.10;;;9.40;;
23370;SDS011;11858;51.056;3.712;2023-04-24T00:46:39;15.85;;;8.30;;
23370;SDS011;11858;51.056;3.712;2023-04-24T00:49:05;33.25;;;8.88;;
23370;SDS011;11858;51.056;3.712;2023-04-24T00:51:31;19.30;;;11.73;;
23370;SDS011;11858;51.056;3.712;2023-04-24T00:53:57;1.45;;;1.23;;
23370;SDS011;11858;51.056;3.712;2023-04-24T00:56:24;12.48;;;7.32;;
23370;SDS011;11858;51.056;3.712;2023-04-24T00:58:49;2.67;;;2.08;;
23370;SDS011;11858;51.056;3.712;2023-04-24T01:01:16;0.90;;;0.88;;
23370;SDS011;11858;51.056;3.712;2023-04-24T01:03:46;16.95;;;5.25;;
23370;SDS011;11858;51.056;3.712;2023-04-24T01:06:12;15.50;;;9.07;;
23370;SDS011;11858;51.056;3.712;2023-04-24T01:08:39;1.05;;;1.05;;
23370;SDS011;11858;51.056;3.712;2023-04-24T01:11:05;7.22;;;3.78;;
23370;SDS011;11858;51.056;3.712;2023-04-24T01:13:31;4.53;;;3.30;;
23370;SDS011;11858;51.056;3.712;2023-04-24T01:15:58;1.70;;;1.60;;
23370;SDS011;11858;51.056;3.712;2023-04-24T01:18:24;5.40;;;3.40;;
23370;SDS011;11858;51.056;3.712;2023-04-24T01:20:50;1.60;;;1.50;;
23370;SDS011;11858;51.056;3.712;2023-04-24T01:23:20;15.60;;;8.00;;
23370;SDS011;11858;51.056;3.712;2023-04-24T01:25:46;7.53;;;4.60;;
23370;SDS011;11858;51.056;3.712;2023-04-24T01:28:12;11.80;;;5.32;;
23370;SDS011;11858;51.056;3.712;2023-04-24T01:30:39;17.73;;;8.45;;
23370;SDS011;11858;51.056;3.712;2023-04-24T01:33:04;10.90;;;6.03;;
23370;SDS011;11858;51.056;3.712;2023-04-24T01:35:30;21.13;;;13.30;;
23370;SDS011;11858;51.056;3.712;2023-04-24T01:37:56;21.10;;;9.02;;
23370;SDS011;11858;51.056;3.712;2023-04-24T01:40:22;18.30;;;10.35;;
23370;SDS011;11858;51.056;3.712;2023-04-24T01:42:48;22.67;;;13.70;;
23370;SDS011;11858;51.056;3.712;2023-04-24T01:45:13;12.40;;;5.47;;
23370;SDS011;11858;51.056;3.712;2023-04-24T01:47:39;26.75;;;12.73;;
23370;SDS011;11858;51.056;3.712;2023-04-24T01:50:06;6.40;;;2.00;;
23370;SDS011;11858;51.056;3.712;2023-04-24T01:52:32;3.65;;;1.77;;
23370;SDS011;11858;51.056;3.712;2023-04-24T01:55:01;13.80;;;6.57;;
23370;SDS011;11858;51.056;3.712;2023-04-24T01:57:28;29.85;;;17.40;;
23370;SDS011;11858;51.056;3.712;2023-04-24T01:59:55;27.50;;;10.73;;
23370;SDS011;11858;51.056;3.712;2023-04-24T02:02:21;6.72;;;4.57;;
23370;SDS011;11858;51.056;3.712;2023-04-24T02:04:48;5.80;;;4.07;;
23370;SDS011;11858;51.056;3.712;2023-04-24T02:07:15;11.95;;;6.32;;
23370;SDS011;11858;51.056;3.712;2023-04-24T02:09:40;14.57;;;8.02;;
23370;SDS011;11858;51.056;3.712;2023-04-24T02:12:06;38.92;;;21.50;;
23370;SDS011;11858;51.056;3.712;2023-04-24T02:14:32;6.35;;;3.92;;
23370;SDS011;11858;51.056;3.712;2023-04-24T02:16:58;2.85;;;2.13;;
23370;SDS011;11858;51.056;3.712;2023-04-24T02:19:23;0.68;;;0.60;;
23370;SDS011;11858;51.056;3.712;2023-04-24T02:21:49;1.45;;;0.80;;
23370;SDS011;11858;51.056;3.712;2023-04-24T02:24:15;6.13;;;2.80;;
23370;SDS011;11858;51.056;3.712;2023-04-24T02:26:41;3.58;;;2.95;;
23370;SDS011;11858;51.056;3.712;2023-04-24T02:29:07;7.18;;;3.03;;
23370;SDS011;11858;51.056;3.712;2023-04-24T02:31:32;2.17;;;1.98;;
23370;SDS011;11858;51.056;3.712;2023-04-24T02:33:58;6.75;;;3.22;;
23370;SDS011;11858;51.056;3.712;2023-04-24T02:36:24;0.32;;;0.32;;
23370;SDS011;11858;51.056;3.712;2023-04-24T02:38:50;0.20;;;0.20;;
23370;SDS011;11858;51.056;3.712;2023-04-24T02:41:16;0.70;;;0.70;;
23370;SDS011;11858;51.056;3.712;2023-04-24T02:43:41;0.57;;;0.57;;
23370;SDS011;11858;51.056;3.712;2023-04-24T02:46:07;3.03;;;2.25;;
23370;SDS011;11858;51.056;3.712;2023-04-24T02:48:33;0.60;;;0.60;;
23370;SDS011;11858;51.056;3.712;2023-04-24T02:50:58;0.57;;;0.57;;
23370;SDS011;11858;51.056;3.712;2023-04-24T02:53:24;0.30;;;0.30;;
23370;SDS011;11858;51.056;3.712;2023-04-24T02:55:50;0.50;;;0.50;;
23370;SDS011;11858;51.056;3.712;2023-04-24T02:58:16;0.40;;;0.40;;
23370;SDS011;11858;51.056;3.712;2023-04-24T03:00:42;1.02;;;0.98;;
23370;SDS011;11858;51.056;3.712;2023-04-24T03:03:08;2.35;;;0.88;;
23370;SDS011;11858;51.056;3.712;2023-04-24T03:05:34;0.40;;;0.40;;
23370;SDS011;11858;51.056;3.712;2023-04-24T03:08:00;0.63;;;0.57;;
23370;SDS011;11858;51.056;3.712;2023-04-24T03:10:25;0.63;;;0.60;;
23370;SDS011;11858;51.056;3.712;2023-04-24T03:12:51;0.20;;;0.20;;
23370;SDS011;11858;51.056;3.712;2023-04-24T03:15:17;0.68;;;0.68;;
23370;SDS011;11858;51.056;3.712;2023-04-24T03:17:42;5.90;;;1.77;;
23370;SDS011;11858;51.056;3.712;2023-04-24T03:20:08;0.40;;;0.40;;
23370;SDS011;11858;51.056;3.712;2023-04-24T03:22:34;2.72;;;1.73;;
23370;SDS011;11858;51.056;3.712;2023-04-24T03:25:00;0.50;;;0.50;;
23370;SDS011;11858;51.056;3.712;2023-04-24T03:27:26;0.70;;;0.70;;
23370;SDS011;11858;51.056;3.712;2023-04-24T03:29:52;2.53;;;2.08;;
23370;SDS011;11858;51.056;3.712;2023-04-24T03:32:20;2.10;;;1.25;;
23370;SDS011;11858;51.056;3.712;2023-04-24T03:34:47;2.75;;;2.25;;
23370;SDS011;11858;51.056;3.712;2023-04-24T03:37:13;0.60;;;0.60;;
23370;SDS011;11858;51.056;3.712;2023-04-24T03:39:40;0.68;;;0.68;;
23370;SDS011;11858;51.056;3.712;2023-04-24T03:42:05;0.90;;;0.90;;
23370;SDS011;11858;51.056;3.712;2023-04-24T03:44:31;4.40;;;1.85;;
23370;SDS011;11858;51.056;3.712;2023-04-24T03:46:57;0.77;;;0.77;;
23370;SDS011;11858;51.056;3.712;2023-04-24T03:49:23;3.40;;;2.50;;
23370;SDS011;11858;51.056;3.712;2023-04-24T03:51:49;5.22;;;2.55;;
23370;SDS011;11858;51.056;3.712;2023-04-24T03:54:15;0.60;;;0.60;;
23370;SDS011;11858;51.056;3.712;2023-04-24T03:56:41;1.98;;;1.88;;
23370;SDS011;11858;51.056;3.712;2023-04-24T03:59:06;1.40;;;1.30;;
23370;SDS011;11858;51.056;3.712;2023-04-24T04:01:32;4.55;;;2.33;;
23370;SDS011;11858;51.056;3.712;2023-04-24T04:04:01;0.65;;;0.65;;
23370;SDS011;11858;51.056;3.712;2023-04-24T04:06:27;3.78;;;1.75;;
23370;SDS011;11858;51.056;3.712;2023-04-24T04:08:53;2.85;;;2.28;;
23370;SDS011;11858;51.056;3.712;2023-04-24T04:11:19;12.40;;;4.13;;
23370;SDS011;11858;51.056;3.712;2023-04-24T04:13:44;5.13;;;2.55;;
23370;SDS011;11858;51.056;3.712;2023-04-24T04:16:12;1.27;;;1.17;;
23370;SDS011;11858;51.056;3.712;2023-04-24T04:18:38;0.50;;;0.50;;
23370;SDS011;11858;51.056;3.712;2023-04-24T04:21:04;0.40;;;0.40;;
23370;SDS011;11858;51.056;3.712;2023-04-24T04:23:30;12.23;;;4.25;;
23370;SDS011;11858;51.056;3.712;2023-04-24T04:25:56;1.38;;;1.27;;
23370;SDS011;11858;51.056;3.712;2023-04-24T04:28:22;0.60;;;0.60;;
23370;SDS011;11858;51.056;3.712;2023-04-24T04:30:49;0.43;;;0.43;;
23370;SDS011;11858;51.056;3.712;2023-04-24T04:33:19;2.97;;;1.98;;
23370;SDS011;11858;51.056;3.712;2023-04-24T04:35:45;2.20;;;1.65;;
23370;SDS011;11858;51.056;3.712;2023-04-24T04:38:13;1.90;;;1.60;;
23370;SDS011;11858;51.056;3.712;2023-04-24T04:40:40;3.13;;;2.08;;
23370;SDS011;11858;51.056;3.712;2023-04-24T04:43:06;2.88;;;1.88;;
23370;SDS011;11858;51.056;3.712;2023-04-24T04:45:31;0.60;;;0.60;;
23370;SDS011;11858;51.056;3.712;2023-04-24T04:47:59;5.47;;;2.58;;
23370;SDS011;11858;51.056;3.712;2023-04-24T04:50:26;2.83;;;1.92;;
23370;SDS011;11858;51.056;3.712;2023-04-24T04:52:52;1.25;;;1.15;;
23370;SDS011;11858;51.056;3.712;2023-04-24T04:55:18;1.35;;;1.25;;
23370;SDS011;11858;51.056;3.712;2023-04-24T04:57:45;0.68;;;0.68;;
23370;SDS011;11858;51.056;3.712;2023-04-24T05:00:11;3.25;;;1.65;;
23370;SDS011;11858;51.056;3.712;2023-04-24T05:02:37;0.50;;;0.50;;
23370;SDS011;11858;51.056;3.712;2023-04-24T05:05:04;1.92;;;1.35;;
23370;SDS011;11858;51.056;3.712;2023-04-24T05:07:31;1.30;;;1.20;;
23370;SDS011;11858;51.056;3.712;2023-04-24T05:09:57;9.95;;;4.20;;
23370;SDS011;11858;51.056;3.712;2023-04-24T05:12:22;6.13;;;3.90;;
23370;SDS011;11858;51.056;3.712;2023-04-24T05:14:48;4.63;;;2.15;;
23370;SDS011;11858;51.056;3.712;2023-04-24T05:17:14;0.50;;;0.50;;
23370;SDS011;11858;51.056;3.712;2023-04-24T05:19:41;0.40;;;0.40;;
23370;SDS011;11858;51.056;3.712;2023-04-24T05:22:07;3.75;;;2.97;;
23370;SDS011;11858;51.056;3.712;2023-04-24T05:24:34;1.05;;;0.98;;
23370;SDS011;11858;51.056;3.712;2023-04-24T05:27:00;3.00;;;1.58;;
23370;SDS011;11858;51.056;3.712;2023-04-24T05:29:27;16.75;;;6.32;;
23370;SDS011;11858;51.056;3.712;2023-04-24T05:31:55;0.40;;;0.40;;
23370;SDS011;11858;51.056;3.712;2023-04-24T05:34:21;1.42;;;0.98;;
23370;SDS011;11858;51.056;3.712;2023-04-24T05:36:47;1.85;;;1.75;;
23370;SDS011;11858;51.056;3.712;2023-04-24T05:39:13;5.03;;;2.63;;
23370;SDS011;11858;51.056;3.712;2023-04-24T05:41:39;2.83;;;1.55;;
23370;SDS011;11858;51.056;3.712;2023-04-24T05:44:05;1.05;;;1.05;;
23370;SDS011;11858;51.056;3.712;2023-04-24T05:46:31;0.60;;;0.60;;
23370;SDS011;11858;51.056;3.712;2023-04-24T05:48:57;0.40;;;0.40;;
23370;SDS011;11858;51.056;3.712;2023-04-24T05:51:23;0.70;;;0.70;;
23370;SDS011;11858;51.056;3.712;2023-04-24T05:53:48;1.25;;;1.25;;
23370;SDS011;11858;51.056;3.712;2023-04-24T05:56:14;7.10;;;4.80;;
23370;SDS011;11858;51.056;3.712;2023-04-24T05:58:41;19.05;;;7.18;;
23370;SDS011;11858;51.056;3.712;2023-04-24T06:01:06;0.50;;;0.50;;
23370;SDS011;11858;51.056;3.712;2023-04-24T06:03:32;3.03;;;1.85;;
23370;SDS011;11858;51.056;3.712;2023-04-24T06:05:58;0.40;;;0.40;;
23370;SDS011;11858;51.056;3.712;2023-04-24T06:08:24;2.85;;;1.02;;
23370;SDS011;11858;51.056;3.712;2023-04-24T06:10:50;2.22;;;1.30;;
23370;SDS011;11858;51.056;3.712;2023-04-24T06:13:16;0.65;;;0.63;;
23370;SDS011;11858;51.056;3.712;2023-04-24T06:15:42;1.33;;;1.23;;
23370;SDS011;11858;51.056;3.712;2023-04-24T06:18:08;0.50;;;0.50;;
23370;SDS011;11858;51.056;3.712;2023-04-24T06:20:37;12.80;;;1.40;;
23370;SDS011;11858;51.056;3.712;2023-04-24T06:23:03;7.00;;;3.58;;
23370;SDS011;11858;51.056;3.712;2023-04-24T06:25:29;4.57;;;2.25;;
23370;SDS011;11858;51.056;3.712;2023-04-24T06:27:54;2.70;;;2.10;;
23370;SDS011;11858;51.056;3.712;2023-04-24T06:30:21;1.35;;;1.25;;
23370;SDS011;11858;51.056;3.712;2023-04-24T06:32:46;3.85;;;2.38;;
23370;SDS011;11858;51.056;3.712;2023-04-24T06:35:12;0.73;;;0.73;;
23370;SDS011;11858;51.056;3.712;2023-04-24T06:37:41;1.95;;;1.85;;
23370;SDS011;11858;51.056;3.712;2023-04-24T06:40:07;0.60;;;0.60;;
23370;SDS011;11858;51.056;3.712;2023-04-24T06:42:34;1.67;;;1.40;;
23370;SDS011;11858;51.056;3.712;2023-04-24T06:45:00;1.50;;;1.40;;
23370;SDS011;11858;51.056;3.712;2023-04-24T06:47:26;9.05;;;2.40;;
23370;SDS011;11858;51.056;3.712;2023-04-24T06:49:52;3.20;;;2.15;;
23370;SDS011;11858;51.056;3.712;2023-04-24T06:52:18;5.45;;;2.50;;
23370;SDS011;11858;51.056;3.712;2023-04-24T06:54:44;2.67;;;2.30;;
23370;SDS011;11858;51.056;3.712;2023-04-24T06:57:10;1.02;;;1.02;;
23370;SDS011;11858;51.056;3.712;2023-04-24T06:59:36;2.28;;;1.25;;
23370;SDS011;11858;51.056;3.712;2023-04-24T07:02:02;6.85;;;2.83;;
23370;SDS011;11858;51.056;3.712;2023-04-24T07:04:28;1.13;;;1.13;;
23370;SDS011;11858;51.056;3.712;2023-04-24T07:06:54;0.90;;;0.90;;
23370;SDS011;11858;51.056;3.712;2023-04-24T07:09:26;2.88;;;1.48;;
23370;SDS011;11858;51.056;3.712;2023-04-24T07:11:52;3.10;;;2.30;;
23370;SDS011;11858;51.056;3.712;2023-04-24T07:14:18;1.35;;;1.35;;
23370;SDS011;11858;51.056;3.712;2023-04-24T07:16:45;0.93;;;0.93;;
23370;SDS011;11858;51.056;3.712;2023-04-24T07:19:12;2.70;;;1.92;;
23370;SDS011;11858;51.056;3.712;2023-04-24T07:21:38;1.92;;;1.75;;
23370;SDS011;11858;51.056;3.712;2023-04-24T07:24:03;11.27;;;3.35;;
23370;SDS011;11858;51.056;3.712;2023-04-24T07:26:29;1.98;;;1.30;;
23370;SDS011;11858;51.056;3.712;2023-04-24T07:28:56;0.70;;;0.70;;
23370;SDS011;11858;51.056;3.712;2023-04-24T07:31:21;1.02;;;0.90;;
23370;SDS011;11858;51.056;3.712;2023-04-24T07:33:48;1.17;;;1.10;;
23370;SDS011;11858;51.056;3.712;2023-04-24T07:36:14;1.25;;;1.25;;
23370;SDS011;11858;51.056;3.712;2023-04-24T07:38:43;2.80;;;2.60;;
23370;SDS011;11858;51.056;3.712;2023-04-24T07:41:13;2.72;;;2.53;;
23370;SDS011;11858;51.056;3.712;2023-04-24T07:43:39;10.55;;;4.13;;
23370;SDS011;11858;51.056;3.712;2023-04-24T07:46:05;2.58;;;1.98;;
23370;SDS011;11858;51.056;3.712;2023-04-24T07:48:31;4.90;;;2.05;;
23370;SDS011;11858;51.056;3.712;2023-04-24T07:50:57;2.33;;;2.22;;
23370;SDS011;11858;51.056;3.712;2023-04-24T07:53:23;0.88;;;0.88;;
23370;SDS011;11858;51.056;3.712;2023-04-24T07:55:48;1.73;;;1.63;;
23370;SDS011;11858;51.056;3.712;2023-04-24T07:58:14;7.22;;;3.47;;
23370;SDS011;11858;51.056;3.712;2023-04-24T08:00:40;4.88;;;3.00;;
23370;SDS011;11858;51.056;3.712;2023-04-24T08:03:05;3.70;;;2.05;;
23370;SDS011;11858;51.056;3.712;2023-04-24T08:05:31;6.60;;;3.72;;
23370;SDS011;11858;51.056;3.712;2023-04-24T08:07:57;2.50;;;2.40;;
23370;SDS011;11858;51.056;3.712;2023-04-24T08:10:23;4.70;;;2.92;;
23370;SDS011;11858;51.056;3.712;2023-04-24T08:12:49;8.20;;;7.43;;
23370;SDS011;11858;51.056;3.712;2023-04-24T08:15:15;3.90;;;3.70;;
23370;SDS011;11858;51.056;3.712;2023-04-24T08:17:41;9.02;;;7.05;;
23370;SDS011;11858;51.056;3.712;2023-04-24T08:20:08;10.48;;;9.73;;
23370;SDS011;11858;51.056;3.712;2023-04-24T08:25:05;13.98;;;12.68;;
23370;SDS011;11858;51.056;3.712;2023-04-24T08:27:31;16.50;;;13.27;;
23370;SDS011;11858;51.056;3.712;2023-04-24T08:29:57;14.30;;;13.50;;
23370;SDS011;11858;51.056;3.712;2023-04-24T08:32:23;16.63;;;15.40;;
23370;SDS011;11858;51.056;3.712;2023-04-24T08:34:49;16.55;;;15.45;;
23370;SDS011;11858;51.056;3.712;2023-04-24T08:37:17;16.73;;;15.73;;
23370;SDS011;11858;51.056;3.712;2023-04-24T08:39:43;18.73;;;17.52;;
23370;SDS011;11858;51.056;3.712;2023-04-24T08:42:08;19.55;;;18.13;;
23370;SDS011;11858;51.056;3.712;2023-04-24T08:44:37;19.08;;;17.60;;
23370;SDS011;11858;51.056;3.712;2023-04-24T08:47:04;19.00;;;17.40;;
23370;SDS011;11858;51.056;3.712;2023-04-24T08:49:32;19.75;;;18.17;;
23370;SDS011;11858;51.056;3.712;2023-04-24T08:52:01;17.65;;;16.55;;
23370;SDS011;11858;51.056;3.712;2023-04-24T08:54:28;16.67;;;15.68;;
23370;SDS011;11858;51.056;3.712;2023-04-24T08:56:54;16.02;;;15.02;;
23370;SDS011;11858;51.056;3.712;2023-04-24T08:59:25;16.27;;;15.27;;
23370;SDS011;11858;51.056;3.712;2023-04-24T09:01:52;15.35;;;14.45;;
23370;SDS011;11858;51.056;3.712;2023-04-24T09:04:19;17.67;;;16.55;;
23370;SDS011;11858;51.056;3.712;2023-04-24T09:06:47;18.35;;;16.83;;
23370;SDS011;11858;51.056;3.712;2023-04-24T09:09:14;17.48;;;16.35;;
23370;SDS011;11858;51.056;3.712;2023-04-24T09:11:42;18.23;;;16.73;;
23370;SDS011;11858;51.056;3.712;2023-04-24T09:14:09;16.95;;;15.85;;
23370;SDS011;11858;51.056;3.712;2023-04-24T09:16:35;17.00;;;15.90;;
23370;SDS011;11858;51.056;3.712;2023-04-24T09:19:01;18.95;;;17.60;;
23370;SDS011;11858;51.056;3.712;2023-04-24T09:21:31;19.17;;;17.70;;
23370;SDS011;11858;51.056;3.712;2023-04-24T09:24:04;16.42;;;15.43;;
23370;SDS011;11858;51.056;3.712;2023-04-24T09:26:33;20.17;;;18.10;;
23370;SDS011;11858;51.056;3.712;2023-04-24T09:29:00;17.95;;;16.70;;
23370;SDS011;11858;51.056;3.712;2023-04-24T09:31:28;16.80;;;15.70;;
23370;SDS011;11858;51.056;3.712;2023-04-24T09:33:59;18.48;;;17.05;;
23370;SDS011;11858;51.056;3.712;2023-04-24T09:36:32;17.77;;;16.58;;
23370;SDS011;11858;51.056;3.712;2023-04-24T09:38:59;17.75;;;16.55;;
23370;SDS011;11858;51.056;3.712;2023-04-24T09:41:26;17.50;;;16.40;;
23370;SDS011;11858;51.056;3.712;2023-04-24T09:43:54;17.33;;;16.13;;
23370;SDS011;11858;51.056;3.712;2023-04-24T09:46:20;19.58;;;17.45;;
23370;SDS011;11858;51.056;3.712;2023-04-24T09:48:48;18.65;;;17.35;;
23370;SDS011;11858;51.056;3.712;2023-04-24T09:51:14;17.83;;;16.63;;
23370;SDS011;11858;51.056;3.712;2023-04-24T09:53:44;18.63;;;17.35;;
23370;SDS011;11858;51.056;3.712;2023-04-24T09:56:11;18.10;;;16.90;;
23370;SDS011;11858;51.056;3.712;2023-04-24T09:58:40;18.63;;;17.25;;
23370;SDS011;11858;51.056;3.712;2023-04-24T10:01:05;18.42;;;17.23;;
23370;SDS011;11858;51.056;3.712;2023-04-24T10:03:34;19.20;;;17.70;;
23370;SDS011;11858;51.056;3.712;2023-04-24T10:06:01;19.27;;;17.70;;
23370;SDS011;11858;51.056;3.712;2023-04-24T10:08:33;18.27;;;17.08;;
23370;SDS011;11858;51.056;3.712;2023-04-24T10:11:00;18.52;;;17.33;;
23370;SDS011;11858;51.056;3.712;2023-04-24T10:13:26;18.80;;;17.50;;
23370;SDS011;11858;51.056;3.712;2023-04-24T10:15:53;20.08;;;18.48;;
23370;SDS011;11858;51.056;3.712;2023-04-24T10:18:20;18.38;;;17.17;;
23370;SDS011;11858;51.056;3.712;2023-04-24T10:20:46;22.42;;;18.23;;
23370;SDS011;11858;51.056;3.712;2023-04-24T10:23:12;19.00;;;17.58;;
23370;SDS011;11858;51.056;3.712;2023-04-24T10:25:38;17.60;;;16.50;;
23370;SDS011;11858;51.056;3.712;2023-04-24T10:28:04;17.60;;;16.50;;
23370;SDS011;11858;51.056;3.712;2023-04-24T10:30:30;17.90;;;16.70;;
23370;SDS011;11858;51.056;3.712;2023-04-24T10:33:04;18.65;;;17.45;;
23370;SDS011;11858;51.056;3.712;2023-04-24T10:35:34;19.42;;;18.05;;
23370;SDS011;11858;51.056;3.712;2023-04-24T10:40:33;18.17;;;16.98;;
23370;SDS011;11858;51.056;3.712;2023-04-24T10:43:03;18.90;;;17.60;;
23370;SDS011;11858;51.056;3.712;2023-04-24T10:45:34;18.73;;;17.40;;
23370;SDS011;11858;51.056;3.712;2023-04-24T10:50:27;17.63;;;16.52;;
23370;SDS011;11858;51.056;3.712;2023-04-24T10:53:04;18.67;;;17.38;;
23370;SDS011;11858;51.056;3.712;2023-04-24T10:55:48;18.40;;;17.20;;
23370;SDS011;11858;51.056;3.712;2023-04-24T10:58:21;19.30;;;17.92;;
23370;SDS011;11858;51.056;3.712;2023-04-24T11:00:57;20.13;;;18.63;;
23370;SDS011;11858;51.056;3.712;2023-04-24T11:03:25;20.15;;;18.55;;
23370;SDS011;11858;51.056;3.712;2023-04-24T11:05:53;19.33;;;17.85;;
23370;SDS011;11858;51.056;3.712;2023-04-24T11:11:14;19.55;;;18.08;;
23370;SDS011;11858;51.056;3.712;2023-04-24T11:16:26;20.33;;;18.80;;
23370;SDS011;11858;51.056;3.712;2023-04-24T11:24:21;20.65;;;19.10;;
23370;SDS011;11858;51.056;3.712;2023-04-24T11:26:48;19.17;;;17.88;;
23370;SDS011;11858;51.056;3.712;2023-04-24T11:29:15;19.10;;;17.80;;
23370;SDS011;11858;51.056;3.712;2023-04-24T11:31:40;19.10;;;17.80;;
23370;SDS011;11858;51.056;3.712;2023-04-24T11:34:13;19.92;;;18.50;;
23370;SDS011;11858;51.056;3.712;2023-04-24T11:36:40;19.40;;;18.10;;
23370;SDS011;11858;51.056;3.712;2023-04-24T11:39:11;20.83;;;18.70;;
23370;SDS011;11858;51.056;3.712;2023-04-24T11:41:38;21.77;;;17.92;;
23370;SDS011;11858;51.056;3.712;2023-04-24T11:44:05;20.23;;;18.77;;
23370;SDS011;11858;51.056;3.712;2023-04-24T11:46:32;19.23;;;17.92;;
23370;SDS011;11858;51.056;3.712;2023-04-24T11:48:58;20.48;;;18.77;;
23370;SDS011;11858;51.056;3.712;2023-04-24T11:51:25;20.75;;;19.15;;
23370;SDS011;11858;51.056;3.712;2023-04-24T11:53:55;19.45;;;18.05;;
23370;SDS011;11858;51.056;3.712;2023-04-24T11:56:21;19.05;;;17.83;;
23370;SDS011;11858;51.056;3.712;2023-04-24T11:58:47;20.75;;;19.05;;
23370;SDS011;11858;51.056;3.712;2023-04-24T12:01:13;20.55;;;18.85;;
23370;SDS011;11858;51.056;3.712;2023-04-24T12:03:40;18.85;;;17.55;;
23370;SDS011;11858;51.056;3.712;2023-04-24T12:06:09;19.02;;;17.73;;
23370;SDS011;11858;51.056;3.712;2023-04-24T12:08:36;18.95;;;17.65;;
23370;SDS011;11858;51.056;3.712;2023-04-24T12:11:03;19.02;;;17.73;;
23370;SDS011;11858;51.056;3.712;2023-04-24T12:13:32;19.20;;;17.90;;
23370;SDS011;11858;51.056;3.712;2023-04-24T12:15:58;18.88;;;17.58;;
23370;SDS011;11858;51.056;3.712;2023-04-24T12:18:24;18.88;;;17.58;;
23370;SDS011;11858;51.056;3.712;2023-04-24T12:20:50;18.35;;;17.15;;
23370;SDS011;11858;51.056;3.712;2023-04-24T12:23:16;19.02;;;17.73;;
23370;SDS011;11858;51.056;3.712;2023-04-24T12:25:59;18.70;;;17.50;;
23370;SDS011;11858;51.056;3.712;2023-04-24T12:28:34;19.27;;;17.98;;
23370;SDS011;11858;51.056;3.712;2023-04-24T12:31:01;18.92;;;17.63;;
23370;SDS011;11858;51.056;3.712;2023-04-24T12:33:27;19.52;;;18.23;;
23370;SDS011;11858;51.056;3.712;2023-04-24T12:35:52;19.77;;;18.38;;
23370;SDS011;11858;51.056;3.712;2023-04-24T12:38:23;19.25;;;18.05;;
23370;SDS011;11858;51.056;3.712;2023-04-24T12:41:01;21.02;;;18.95;;
23370;SDS011;11858;51.056;3.712;2023-04-24T12:43:29;19.88;;;18.58;;
23370;SDS011;11858;51.056;3.712;2023-04-24T12:45:55;19.40;;;18.15;;
23370;SDS011;11858;51.056;3.712;2023-04-24T12:48:20;19.60;;;18.30;;
23370;SDS011;11858;51.056;3.712;2023-04-24T12:50:47;19.67;;;18.38;;
23370;SDS011;11858;51.056;3.712;2023-04-24T12:53:13;19.52;;;18.15;;
23370;SDS011;11858;51.056;3.712;2023-04-24T12:55:38;19.65;;;18.35;;
23370;SDS011;11858;51.056;3.712;2023-04-24T12:58:05;19.60;;;18.30;;
23370;SDS011;11858;51.056;3.712;2023-04-24T13:00:30;19.50;;;18.10;;
23370;SDS011;11858;51.056;3.712;2023-04-24T13:02:56;19.48;;;18.27;;
23370;SDS011;11858;51.056;3.712;2023-04-24T13:05:22;20.30;;;19.00;;
23370;SDS011;11858;51.056;3.712;2023-04-24T13:07:47;20.40;;;18.90;;
23370;SDS011;11858;51.056;3.712;2023-04-24T13:10:13;19.88;;;18.58;;
23370;SDS011;11858;51.056;3.712;2023-04-24T13:12:39;19.10;;;17.90;;
23370;SDS011;11858;51.056;3.712;2023-04-24T13:15:05;19.88;;;18.58;;
23370;SDS011;11858;51.056;3.712;2023-04-24T13:17:31;19.50;;;18.20;;
23370;SDS011;11858;51.056;3.712;2023-04-24T13:19:58;19.00;;;17.73;;
23370;SDS011;11858;51.056;3.712;2023-04-24T13:22:24;19.45;;;18.25;;
23370;SDS011;11858;51.056;3.712;2023-04-24T13:24:50;19.50;;;18.25;;
23370;SDS011;11858;51.056;3.712;2023-04-24T13:27:16;19.05;;;17.85;;
23370;SDS011;11858;51.056;3.712;2023-04-24T13:29:42;18.77;;;17.58;;
23370;SDS011;11858;51.056;3.712;2023-04-24T13:32:08;19.20;;;18.00;;
23370;SDS011;11858;51.056;3.712;2023-04-24T13:34:34;18.38;;;17.25;;
23370;SDS011;11858;51.056;3.712;2023-04-24T13:37:00;19.40;;;18.10;;
23370;SDS011;11858;51.056;3.712;2023-04-24T13:39:26;19.48;;;18.17;;
23370;SDS011;11858;51.056;3.712;2023-04-24T13:41:52;18.60;;;17.40;;
23370;SDS011;11858;51.056;3.712;2023-04-24T13:44:18;17.95;;;16.85;;
23370;SDS011;11858;51.056;3.712;2023-04-24T13:46:46;18.08;;;16.98;;
23370;SDS011;11858;51.056;3.712;2023-04-24T13:49:13;18.25;;;17.15;;
23370;SDS011;11858;51.056;3.712;2023-04-24T13:51:39;18.48;;;17.38;;
23370;SDS011;11858;51.056;3.712;2023-04-24T13:54:06;19.05;;;17.85;;
23370;SDS011;11858;51.056;3.712;2023-04-24T13:56:32;18.55;;;17.45;;
23370;SDS011;11858;51.056;3.712;2023-04-24T13:58:59;18.55;;;17.35;;
23370;SDS011;11858;51.056;3.712;2023-04-24T14:01:25;18.63;;;17.45;;
23370;SDS011;11858;51.056;3.712;2023-04-24T14:03:51;21.30;;;20.00;;
23370;SDS011;11858;51.056;3.712;2023-04-24T14:06:18;21.48;;;20.08;;
23370;SDS011;11858;51.056;3.712;2023-04-24T14:08:44;21.75;;;20.38;;
23370;SDS011;11858;51.056;3.712;2023-04-24T14:11:10;21.95;;;20.55;;
23370;SDS011;11858;51.056;3.712;2023-04-24T14:13:36;21.50;;;20.20;;
23370;SDS011;11858;51.056;3.712;2023-04-24T14:16:02;21.10;;;19.80;;
23370;SDS011;11858;51.056;3.712;2023-04-24T14:18:29;21.90;;;20.50;;
23370;SDS011;11858;51.056;3.712;2023-04-24T14:20:54;21.80;;;20.50;;
23370;SDS011;11858;51.056;3.712;2023-04-24T14:23:20;22.15;;;20.70;;
23370;SDS011;11858;51.056;3.712;2023-04-24T14:25:45;21.60;;;20.20;;
23370;SDS011;11858;51.056;3.712;2023-04-24T14:28:15;22.25;;;20.85;;
23370;SDS011;11858;51.056;3.712;2023-04-24T14:30:42;21.55;;;20.20;;
23370;SDS011;11858;51.056;3.712;2023-04-24T14:33:07;21.45;;;20.00;;
23370;SDS011;11858;51.056;3.712;2023-04-24T14:35:33;21.40;;;20.10;;
23370;SDS011;11858;51.056;3.712;2023-04-24T14:38:00;21.77;;;20.38;;
23370;SDS011;11858;51.056;3.712;2023-04-24T14:40:26;21.20;;;19.90;;
23370;SDS011;11858;51.056;3.712;2023-04-24T14:42:51;21.45;;;20.05;;
23370;SDS011;11858;51.056;3.712;2023-04-24T14:45:17;22.00;;;20.60;;
23370;SDS011;11858;51.056;3.712;2023-04-24T14:47:44;22.25;;;20.75;;
23370;SDS011;11858;51.056;3.712;2023-04-24T14:50:10;22.50;;;21.00;;